Time,TemperatureF,DewpointF,PressureIn,WindDirection,WindDirectionDegrees,WindSpeedMPH,WindSpeedGustMPH,Humidity,HourlyPrecipIn,Conditions,Clouds,dailyrainin,SoftwareType,DateUTC
2013-08-19 00:00:00,63.9,54.3,0.00,SSW,208,1.8,1.8,71,0.00,,,0.00,VWS V15.00,2013-08-19 04:00:00,
2013-08-19 00:01:00,62.6,53.5,0.00,SE,132,1.8,1.8,72,0.00,,,0.00,VWS V14.01,2013-08-19 04:01:00,
2013-08-19 00:06:00,62.6,53.8,0.00,SE,132,1.8,1.8,73,0.00,,,0.00,VWS V14.01,2013-08-19 04:06:00,
2013-08-19 00:11:00,62.6,53.8,0.00,SE,132,1.8,1.8,73,0.00,,,0.00,VWS V14.01,2013-08-19 04:11:00,
2013-08-19 00:16:00,62.6,53.8,0.00,SE,132,1.8,1.8,73,0.00,,,0.00,VWS V14.01,2013-08-19 04:16:00,
2013-08-19 00:21:00,62.4,53.7,0.00,SE,132,1.8,1.8,73,0.00,,,0.00,VWS V14.01,2013-08-19 04:21:00,
2013-08-19 00:26:00,62.4,53.7,0.00,SE,132,1.8,1.8,73,0.00,,,0.00,VWS V14.01,2013-08-19 04:26:00,
2013-08-19 00:31:00,62.2,53.5,0.00,SE,132,1.8,1.8,73,0.00,,,0.00,VWS V14.01,2013-08-19 04:31:00,
2013-08-19 00:36:00,62.2,53.5,0.00,SE,132,1.8,1.8,73,0.00,,,0.00,VWS V14.01,2013-08-19 04:36:00,
2013-08-19 00:41:00,62.2,53.5,0.00,SE,132,1.8,4.0,73,0.00,,,0.00,VWS V14.01,2013-08-19 04:41:00,
2013-08-19 00:46:00,62.2,53.9,0.00,SE,132,1.8,4.0,74,0.00,,,0.00,VWS V14.01,2013-08-19 04:46:00,
2013-08-19 00:51:00,62.2,53.9,0.00,SE,132,1.8,4.0,74,0.00,,,0.00,VWS V14.01,2013-08-19 04:51:00,
2013-08-19 00:56:00,62.1,53.7,0.00,SSE,158,1.8,4.0,74,0.00,,,0.00,VWS V14.01,2013-08-19 04:56:00,
2013-08-19 01:00:00,62.6,53.5,0.00,SE,132,1.8,1.8,72,0.00,,,0.00,VWS V15.00,2013-08-19 05:00:00,
2013-08-19 01:01:00,62.1,53.7,0.00,SSW,192,1.8,5.3,74,0.00,,,0.00,VWS V14.01,2013-08-19 05:01:00,
2013-08-19 01:06:00,62.1,53.7,0.00,SSW,208,4.4,7.1,74,0.00,,,0.00,VWS V14.01,2013-08-19 05:06:00,
2013-08-19 01:11:00,62.2,53.9,0.00,SSW,208,4.4,7.1,74,0.00,,,0.00,VWS V14.01,2013-08-19 05:11:00,
2013-08-19 01:16:00,62.1,53.7,0.00,SSW,208,1.8,7.1,74,0.00,,,0.00,VWS V14.01,2013-08-19 05:16:00,
2013-08-19 01:21:00,62.1,53.7,0.00,SSW,208,4.0,7.1,74,0.00,,,0.00,VWS V14.01,2013-08-19 05:21:00,
2013-08-19 01:26:00,61.9,53.9,0.00,SSW,208,1.8,7.1,75,0.00,,,0.00,VWS V14.01,2013-08-19 05:26:00,
2013-08-19 01:31:00,61.9,53.9,0.00,SSW,208,1.8,7.1,75,0.00,,,0.00,VWS V14.01,2013-08-19 05:31:00,
2013-08-19 01:36:00,61.7,53.7,0.00,SSW,208,1.8,7.1,75,0.00,,,0.00,VWS V14.01,2013-08-19 05:36:00,
2013-08-19 01:41:00,61.7,53.7,0.00,SSW,208,1.8,7.1,75,0.00,,,0.00,VWS V14.01,2013-08-19 05:41:00,
2013-08-19 01:46:00,61.5,53.5,0.00,SSW,208,1.8,7.1,75,0.00,,,0.00,VWS V14.01,2013-08-19 05:46:00,
2013-08-19 01:51:00,61.3,53.4,0.00,SSW,208,1.8,7.1,75,0.00,,,0.00,VWS V14.01,2013-08-19 05:51:00,
2013-08-19 01:56:00,61.2,53.2,0.00,SSW,208,1.8,7.1,75,0.00,,,0.00,VWS V14.01,2013-08-19 05:56:00,
2013-08-19 02:00:00,62.1,53.7,0.00,SSW,192,1.8,5.3,74,0.00,,,0.00,VWS V15.00,2013-08-19 06:00:00,
2013-08-19 02:01:00,61.2,53.2,0.00,SSW,208,1.8,1.8,75,0.00,,,0.00,VWS V14.01,2013-08-19 06:01:00,
2013-08-19 02:06:00,61.0,53.0,0.00,SSW,208,1.8,1.8,75,0.00,,,0.00,VWS V14.01,2013-08-19 06:06:00,
2013-08-19 02:11:00,60.8,52.8,0.00,SSW,208,1.8,1.8,75,0.00,,,0.00,VWS V14.01,2013-08-19 06:11:00,
2013-08-19 02:16:00,60.6,53.0,0.00,SSW,208,1.8,1.8,76,0.00,,,0.00,VWS V14.01,2013-08-19 06:16:00,
2013-08-19 02:21:00,60.6,53.0,0.00,SSW,208,1.8,1.8,76,0.00,,,0.00,VWS V14.01,2013-08-19 06:21:00,
2013-08-19 02:26:00,60.4,52.8,0.00,SSW,208,1.8,1.8,76,0.00,,,0.00,VWS V14.01,2013-08-19 06:26:00,
2013-08-19 02:31:00,60.4,52.8,0.00,SSW,208,1.8,1.8,76,0.00,,,0.00,VWS V14.01,2013-08-19 06:31:00,
2013-08-19 02:36:00,60.3,52.7,0.00,NNE,27,4.4,4.9,76,0.00,,,0.00,VWS V14.01,2013-08-19 06:36:00,
2013-08-19 02:41:00,60.4,52.8,0.00,NNE,30,4.0,4.9,76,0.00,,,0.00,VWS V14.01,2013-08-19 06:41:00,
2013-08-19 02:46:00,61.0,54.1,0.00,WNW,288,1.8,5.3,78,0.00,,,0.00,VWS V14.01,2013-08-19 06:46:00,
2013-08-19 02:51:00,61.7,54.8,0.00,WNW,288,1.8,5.3,78,0.00,,,0.00,VWS V14.01,2013-08-19 06:51:00,
2013-08-19 02:56:00,61.9,55.0,0.00,NW,317,1.8,5.3,78,0.00,,,0.00,VWS V14.01,2013-08-19 06:56:00,
2013-08-19 03:00:00,61.2,53.2,0.00,SSW,208,1.8,7.1,75,0.00,,,0.00,VWS V15.00,2013-08-19 07:00:00,
2013-08-19 03:01:00,62.1,54.8,0.00,SW,222,1.8,1.8,77,0.00,,,0.00,VWS V14.01,2013-08-19 07:01:00,
2013-08-19 03:05:00,62.1,54.8,0.00,North,357,4.0,5.3,77,0.00,,,0.00,VWS V14.01,2013-08-19 07:05:00,
2013-08-19 03:10:00,62.2,55.0,0.00,WNW,299,1.8,5.3,77,0.00,,,0.00,VWS V14.01,2013-08-19 07:10:00,
2013-08-19 03:15:00,62.2,55.0,0.00,West,273,1.8,5.3,77,0.00,,,0.00,VWS V14.01,2013-08-19 07:15:00,
2013-08-19 03:20:00,62.4,54.8,0.00,North,0,1.8,5.3,76,0.00,,,0.00,VWS V14.01,2013-08-19 07:20:00,
2013-08-19 03:25:00,62.6,54.6,0.00,NW,310,4.4,6.2,75,0.00,,,0.00,VWS V14.01,2013-08-19 07:25:00,
2013-08-19 03:30:00,62.6,54.2,0.00,NW,311,1.8,6.2,74,0.00,,,0.00,VWS V14.01,2013-08-19 07:30:00,
2013-08-19 03:35:00,62.8,54.0,0.00,NNW,336,1.8,6.2,73,0.00,,,0.00,VWS V14.01,2013-08-19 07:35:00,
2013-08-19 03:40:00,63.0,54.2,0.00,WSW,238,1.8,6.2,73,0.00,,,0.00,VWS V14.01,2013-08-19 07:40:00,
2013-08-19 03:45:00,63.1,54.0,0.00,WNW,299,1.8,6.2,72,0.00,,,0.00,VWS V14.01,2013-08-19 07:45:00,
2013-08-19 03:50:00,63.1,53.6,0.00,NW,305,1.8,6.2,71,0.00,,,0.00,VWS V14.01,2013-08-19 07:50:00,
2013-08-19 03:55:00,63.3,53.0,0.00,WSW,244,1.8,6.2,69,0.00,,,0.00,VWS V14.01,2013-08-19 07:55:00,
2013-08-19 04:00:00,63.5,52.8,0.00,NW,313,1.8,1.8,68,0.00,,,0.00,VWS V14.01,2013-08-19 08:00:00,
2013-08-19 04:05:00,63.5,52.4,0.00,West,274,1.8,1.8,67,0.00,,,0.00,VWS V14.01,2013-08-19 08:05:00,
2013-08-19 04:10:00,63.7,52.1,0.00,North,0,1.8,1.8,66,0.00,,,0.00,VWS V14.01,2013-08-19 08:10:00,
2013-08-19 04:15:00,63.7,51.7,0.00,NW,313,1.8,1.8,65,0.00,,,0.00,VWS V14.01,2013-08-19 08:15:00,
2013-08-19 04:20:00,63.9,51.5,0.00,NW,311,1.8,1.8,64,0.00,,,0.00,VWS V14.01,2013-08-19 08:20:00,
2013-08-19 04:25:00,63.9,51.0,0.00,WSW,254,1.8,4.0,63,0.00,,,0.00,VWS V14.01,2013-08-19 08:25:00,
2013-08-19 04:30:00,64.0,50.8,0.00,West,261,1.8,4.0,62,0.00,,,0.00,VWS V14.01,2013-08-19 08:30:00,
2013-08-19 04:35:00,64.2,50.1,0.00,WNW,303,1.8,4.0,60,0.00,,,0.00,VWS V14.01,2013-08-19 08:35:00,
2013-08-19 04:40:00,64.2,49.6,0.00,West,279,1.8,4.0,59,0.00,,,0.00,VWS V14.01,2013-08-19 08:40:00,
2013-08-19 04:45:00,64.4,49.3,0.00,NW,304,1.8,4.0,58,0.00,,,0.00,VWS V14.01,2013-08-19 08:45:00,
2013-08-19 04:50:00,64.8,49.2,0.00,WNW,292,1.8,4.0,57,0.00,,,0.00,VWS V14.01,2013-08-19 08:50:00,
2013-08-19 04:55:00,64.8,48.2,0.00,West,278,1.8,4.0,55,0.00,,,0.00,VWS V14.01,2013-08-19 08:55:00,
2013-08-19 05:00:00,64.9,46.9,0.00,WNW,296,1.8,1.8,52,0.00,,,0.00,VWS V14.01,2013-08-19 09:00:00,
2013-08-19 05:05:00,64.9,46.4,0.00,WNW,289,1.8,1.8,51,0.00,,,0.00,VWS V14.01,2013-08-19 09:05:00,
2013-08-19 05:10:00,64.9,44.8,0.00,WNW,292,1.8,1.8,48,0.00,,,0.00,VWS V14.01,2013-08-19 09:10:00,
2013-08-19 05:15:00,65.1,44.4,0.00,WNW,285,1.8,1.8,47,0.00,,,0.00,VWS V14.01,2013-08-19 09:15:00,
2013-08-19 05:20:00,65.1,43.3,0.00,WNW,286,1.8,1.8,45,0.00,,,0.00,VWS V14.01,2013-08-19 09:20:00,
2013-08-19 05:25:00,65.3,42.8,0.00,WNW,288,1.8,1.8,44,0.00,,,0.00,VWS V14.01,2013-08-19 09:25:00,
2013-08-19 05:30:00,65.3,42.8,0.00,WNW,289,1.8,1.8,44,0.00,,,0.00,VWS V14.01,2013-08-19 09:30:00,
2013-08-19 05:35:00,65.3,42.8,0.00,WNW,287,1.8,1.8,44,0.00,,,0.00,VWS V14.01,2013-08-19 09:35:00,
2013-08-19 05:40:00,65.5,43.0,0.00,WNW,293,1.8,1.8,44,0.00,,,0.00,VWS V14.01,2013-08-19 09:40:00,
2013-08-19 05:45:00,65.5,41.8,0.00,WNW,285,1.8,1.8,42,0.00,,,0.00,VWS V14.01,2013-08-19 09:45:00,
2013-08-19 05:50:00,65.7,42.6,0.00,WNW,293,1.8,1.8,43,0.00,,,0.00,VWS V14.01,2013-08-19 09:50:00,
2013-08-19 05:55:00,65.7,42.6,0.00,WNW,291,1.8,1.8,43,0.00,,,0.00,VWS V14.01,2013-08-19 09:55:00,
2013-08-19 06:00:00,65.8,43.3,0.00,WNW,289,1.8,1.8,44,0.00,,,0.00,VWS V14.01,2013-08-19 10:00:00,
2013-08-19 06:05:00,65.8,43.3,0.00,WNW,290,1.8,1.8,44,0.00,,,0.00,VWS V14.01,2013-08-19 10:05:00,
2013-08-19 06:10:00,65.8,43.9,0.00,WNW,291,1.8,1.8,45,0.00,,,0.00,VWS V14.01,2013-08-19 10:10:00,
2013-08-19 06:15:00,65.8,43.9,0.00,WNW,286,1.8,1.8,45,0.00,,,0.00,VWS V14.01,2013-08-19 10:15:00,
2013-08-19 06:20:00,66.0,44.1,0.00,WNW,295,5.3,5.3,45,0.00,,,0.00,VWS V14.01,2013-08-19 10:20:00,
2013-08-19 06:25:00,66.0,44.1,0.00,WNW,297,1.8,6.2,45,0.00,,,0.00,VWS V14.01,2013-08-19 10:25:00,
2013-08-19 06:30:00,65.8,43.9,0.00,WNW,292,1.8,6.2,45,0.00,,,0.00,VWS V14.01,2013-08-19 10:30:00,
2013-08-19 06:35:00,66.0,44.1,0.00,West,275,1.8,6.2,45,0.00,,,0.00,VWS V14.01,2013-08-19 10:35:00,
2013-08-19 06:40:00,65.8,44.5,0.00,WNW,284,1.8,6.2,46,0.00,,,0.00,VWS V14.01,2013-08-19 10:40:00,
2013-08-19 06:45:00,65.8,44.5,0.00,WNW,292,1.8,6.2,46,0.00,,,0.00,VWS V14.01,2013-08-19 10:45:00,
2013-08-19 06:50:00,65.8,44.5,0.00,WNW,287,1.8,6.2,46,0.00,,,0.00,VWS V14.01,2013-08-19 10:50:00,
2013-08-19 06:55:00,65.8,45.1,0.00,NW,305,1.8,6.2,47,0.00,,,0.00,VWS V14.01,2013-08-19 10:55:00,
2013-08-19 07:00:00,65.8,45.1,0.00,West,270,1.8,1.8,47,0.00,,,0.00,VWS V14.01,2013-08-19 11:00:00,
2013-08-19 07:05:00,65.8,45.6,0.00,WNW,288,1.8,1.8,48,0.00,,,0.00,VWS V14.01,2013-08-19 11:05:00,
2013-08-19 07:10:00,65.8,45.6,0.00,WNW,288,1.8,1.8,48,0.00,,,0.00,VWS V14.01,2013-08-19 11:10:00,
2013-08-19 07:15:00,66.0,46.3,0.00,WNW,298,1.8,1.8,49,0.00,,,0.00,VWS V14.01,2013-08-19 11:15:00,
2013-08-19 07:20:00,66.0,46.9,0.00,WNW,290,1.8,1.8,50,0.00,,,0.00,VWS V14.01,2013-08-19 11:20:00,
2013-08-19 07:25:00,66.0,46.9,0.00,WNW,288,1.8,1.8,50,0.00,,,0.00,VWS V14.01,2013-08-19 11:25:00,
2013-08-19 07:30:00,66.0,46.9,0.00,WNW,287,1.8,1.8,50,0.00,,,0.00,VWS V14.01,2013-08-19 11:30:00,
2013-08-19 07:35:00,66.2,47.0,0.00,WNW,294,1.8,1.8,50,0.00,,,0.00,VWS V14.01,2013-08-19 11:35:00,
2013-08-19 07:40:00,66.4,47.2,0.00,WNW,294,1.8,1.8,50,0.00,,,0.00,VWS V14.01,2013-08-19 11:40:00,
2013-08-19 07:45:00,66.6,47.4,0.00,WNW,282,1.8,1.8,50,0.00,,,0.00,VWS V14.01,2013-08-19 11:45:00,
2013-08-19 07:50:00,66.6,47.4,0.00,WNW,288,1.8,1.8,50,0.00,,,0.00,VWS V14.01,2013-08-19 11:50:00,
2013-08-19 07:55:00,66.7,47.5,0.00,WNW,287,1.8,1.8,50,0.00,,,0.00,VWS V14.01,2013-08-19 11:55:00,
2013-08-19 08:00:00,66.9,47.7,0.00,WSW,254,1.8,1.8,50,0.00,,,0.00,VWS V14.01,2013-08-19 12:00:00,
2013-08-19 08:05:00,67.1,47.9,0.00,West,267,1.8,1.8,50,0.00,,,0.00,VWS V14.01,2013-08-19 12:05:00,
2013-08-19 08:10:00,67.1,47.3,0.00,West,268,1.8,1.8,49,0.00,,,0.00,VWS V14.01,2013-08-19 12:10:00,
2013-08-19 08:15:00,67.1,47.3,0.00,WNW,282,1.8,1.8,49,0.00,,,0.00,VWS V14.01,2013-08-19 12:15:00,
2013-08-19 08:20:00,67.3,47.5,0.00,WNW,285,1.8,1.8,49,0.00,,,0.00,VWS V14.01,2013-08-19 12:20:00,
2013-08-19 08:25:00,67.5,47.1,0.00,WNW,290,1.8,1.8,48,0.00,,,0.00,VWS V14.01,2013-08-19 12:25:00,
2013-08-19 08:30:00,67.6,47.3,0.00,WNW,295,1.8,1.8,48,0.00,,,0.00,VWS V14.01,2013-08-19 12:30:00,
2013-08-19 08:35:00,67.8,46.9,0.00,WNW,302,1.8,1.8,47,0.00,,,0.00,VWS V14.01,2013-08-19 12:35:00,
2013-08-19 08:40:00,68.0,47.0,0.00,WNW,291,1.8,1.8,47,0.00,,,0.00,VWS V14.01,2013-08-19 12:40:00,
2013-08-19 08:45:00,68.2,47.2,0.00,WNW,283,1.8,1.8,47,0.00,,,0.00,VWS V14.01,2013-08-19 12:45:00,
2013-08-19 08:50:00,68.4,47.4,0.00,WNW,293,1.8,1.8,47,0.00,,,0.00,VWS V14.01,2013-08-19 12:50:00,
2013-08-19 08:55:00,68.5,47.5,0.00,NW,306,1.8,1.8,47,0.00,,,0.00,VWS V14.01,2013-08-19 12:55:00,
2013-08-19 09:00:00,68.7,47.7,0.00,WNW,291,1.8,1.8,47,0.00,,,0.00,VWS V14.01,2013-08-19 13:00:00,
2013-08-19 09:05:00,68.9,47.9,0.00,WNW,283,1.8,1.8,47,0.00,,,0.00,VWS V14.01,2013-08-19 13:05:00,
2013-08-19 09:10:00,68.9,47.9,0.00,WNW,293,1.8,1.8,47,0.00,,,0.00,VWS V14.01,2013-08-19 13:10:00,
2013-08-19 09:15:00,69.1,48.0,0.00,WNW,293,1.8,1.8,47,0.00,,,0.00,VWS V14.01,2013-08-19 13:15:00,
2013-08-19 09:20:00,69.3,48.2,0.00,WNW,287,1.8,1.8,47,0.00,,,0.00,VWS V14.01,2013-08-19 13:20:00,
2013-08-19 09:25:00,69.6,48.5,0.00,SSW,209,1.8,1.8,47,0.00,,,0.00,VWS V14.01,2013-08-19 13:25:00,
2013-08-19 09:30:00,70.0,48.8,0.00,SSW,209,1.8,1.8,47,0.00,,,0.00,VWS V14.01,2013-08-19 13:30:00,
2013-08-19 09:35:00,70.5,48.8,0.00,WSW,256,1.8,1.8,46,0.00,,,0.00,VWS V14.01,2013-08-19 13:35:00,
2013-08-19 09:40:00,70.7,48.9,0.00,WSW,256,1.8,1.8,46,0.00,,,0.00,VWS V14.01,2013-08-19 13:40:00,
2013-08-19 09:45:00,71.1,48.7,0.00,West,265,1.8,1.8,45,0.00,,,0.00,VWS V14.01,2013-08-19 13:45:00,
2013-08-19 09:50:00,71.2,48.2,0.00,West,265,1.8,1.8,44,0.00,,,0.00,VWS V14.01,2013-08-19 13:50:00,
2013-08-19 09:55:00,71.4,48.4,0.00,WNW,284,1.8,1.8,44,0.00,,,0.00,VWS V14.01,2013-08-19 13:55:00,
2013-08-19 10:00:00,71.8,48.1,0.00,WNW,287,1.8,1.8,43,0.00,,,0.00,VWS V14.01,2013-08-19 14:00:00,
2013-08-19 10:05:00,72.1,48.4,0.00,WNW,287,1.8,1.8,43,0.00,,,0.00,VWS V14.01,2013-08-19 14:05:00,
2013-08-19 10:10:00,72.3,48.0,0.00,WNW,287,4.9,5.8,42,0.00,,,0.00,VWS V14.01,2013-08-19 14:10:00,
2013-08-19 10:15:00,72.5,48.1,0.00,WNW,288,1.8,5.8,42,0.00,,,0.00,VWS V14.01,2013-08-19 14:15:00,
2013-08-19 10:20:00,73.0,48.6,0.00,West,272,4.9,5.8,42,0.00,,,0.00,VWS V14.01,2013-08-19 14:20:00,
2013-08-19 10:25:00,73.4,48.3,0.00,WNW,285,4.4,5.8,41,0.00,,,0.00,VWS V14.01,2013-08-19 14:25:00,
2013-08-19 10:30:00,73.8,48.6,0.00,NW,307,4.9,6.7,41,0.00,,,0.00,VWS V14.01,2013-08-19 14:30:00,
2013-08-19 10:35:00,73.8,48.6,0.00,WNW,287,4.0,6.7,41,0.00,,,0.00,VWS V14.01,2013-08-19 14:35:00,
2013-08-19 10:40:00,74.3,49.1,0.00,WNW,287,1.8,6.7,41,0.00,,,0.00,VWS V14.01,2013-08-19 14:40:00,
2013-08-19 10:45:00,74.5,48.6,0.00,WNW,288,4.0,6.7,40,0.00,,,0.00,VWS V14.01,2013-08-19 14:45:00,
2013-08-19 10:50:00,74.1,47.6,0.00,SSW,211,1.8,6.7,39,0.00,,,0.00,VWS V14.01,2013-08-19 14:50:00,
2013-08-19 10:55:00,73.9,47.5,0.00,West,275,4.4,6.7,39,0.00,,,0.00,VWS V14.01,2013-08-19 14:55:00,
2013-08-19 11:00:00,74.1,47.6,0.00,SSE,154,1.8,6.7,39,0.00,,,0.00,VWS V14.01,2013-08-19 15:00:00,
2013-08-19 11:05:00,74.7,48.8,0.00,SSW,206,4.0,4.9,40,0.00,,,0.00,VWS V14.01,2013-08-19 15:05:00,
2013-08-19 11:10:00,74.8,48.2,0.00,SSW,206,4.4,4.9,39,0.00,,,0.00,VWS V14.01,2013-08-19 15:10:00,
2013-08-19 11:15:00,74.8,48.2,0.00,West,277,4.9,4.9,39,0.00,,,0.00,VWS V14.01,2013-08-19 15:15:00,
2013-08-19 11:20:00,75.0,48.4,0.00,SW,219,1.8,4.9,39,0.00,,,0.00,VWS V14.01,2013-08-19 15:20:00,
2013-08-19 11:25:00,75.2,48.6,0.00,WSW,251,1.8,5.3,39,0.00,,,0.00,VWS V14.01,2013-08-19 15:25:00,
2013-08-19 11:30:00,75.2,48.6,0.00,ESE,121,4.9,5.3,39,0.00,,,0.00,VWS V14.01,2013-08-19 15:30:00,
2013-08-19 11:35:00,75.4,48.7,0.00,NW,308,1.8,5.3,39,0.00,,,0.00,VWS V14.01,2013-08-19 15:35:00,
2013-08-19 11:40:00,75.7,49.7,0.00,SSW,212,4.0,5.3,40,0.00,,,0.00,VWS V14.01,2013-08-19 15:40:00,
2013-08-19 11:45:00,75.9,49.9,0.00,WSW,258,4.4,5.3,40,0.00,,,0.00,VWS V14.01,2013-08-19 15:45:00,
2013-08-19 11:50:00,76.3,49.5,0.00,West,263,4.4,5.8,39,0.00,,,0.00,VWS V14.01,2013-08-19 15:50:00,
2013-08-19 11:55:00,76.5,49.7,0.00,SW,236,4.0,5.8,39,0.00,,,0.00,VWS V14.01,2013-08-19 15:55:00,
2013-08-19 12:00:00,76.8,49.3,0.00,West,274,4.4,5.8,38,0.00,,,0.00,VWS V14.01,2013-08-19 16:00:00,
2013-08-19 12:05:00,77.2,48.9,0.00,SSW,209,5.8,5.8,37,0.00,,,0.00,VWS V14.01,2013-08-19 16:05:00,
2013-08-19 12:10:00,77.7,49.4,0.00,WNW,294,4.4,5.8,37,0.00,,,0.00,VWS V14.01,2013-08-19 16:10:00,
2013-08-19 12:15:00,77.7,48.7,0.00,WNW,290,4.9,5.8,36,0.00,,,0.00,VWS V14.01,2013-08-19 16:15:00,
2013-08-19 12:20:00,77.4,48.3,0.00,NNW,337,4.0,5.8,36,0.00,,,0.00,VWS V14.01,2013-08-19 16:20:00,
2013-08-19 12:25:00,77.4,49.1,0.00,WSW,241,5.8,6.7,37,0.00,,,0.00,VWS V14.01,2013-08-19 16:25:00,
2013-08-19 12:30:00,77.0,48.8,0.00,West,280,4.9,6.7,37,0.00,,,0.00,VWS V14.01,2013-08-19 16:30:00,
2013-08-19 12:35:00,77.0,49.5,0.00,West,267,4.4,6.7,38,0.00,,,0.00,VWS V14.01,2013-08-19 16:35:00,
2013-08-19 12:40:00,77.4,50.5,0.00,West,260,5.3,6.7,39,0.00,,,0.00,VWS V14.01,2013-08-19 16:40:00,
2013-08-19 12:45:00,77.7,50.1,0.00,WNW,295,5.8,6.7,38,0.00,,,0.00,VWS V14.01,2013-08-19 16:45:00,
2013-08-19 12:50:00,77.9,50.3,0.00,NW,314,4.9,8.0,38,0.00,,,0.00,VWS V14.01,2013-08-19 16:50:00,
2013-08-19 12:55:00,77.9,50.3,0.00,WSW,244,4.4,8.0,38,0.00,,,0.00,VWS V14.01,2013-08-19 16:55:00,
2013-08-19 13:00:00,78.3,50.6,0.00,WNW,300,4.4,8.0,38,0.00,,,0.00,VWS V14.01,2013-08-19 17:00:00,
2013-08-19 13:05:00,78.4,50.0,0.00,WNW,290,4.4,5.8,37,0.00,,,0.00,VWS V14.01,2013-08-19 17:05:00,
2013-08-19 13:10:00,77.7,48.7,0.00,West,267,4.9,7.1,36,0.00,,,0.00,VWS V14.01,2013-08-19 17:10:00,
2013-08-19 13:15:00,77.7,50.1,0.00,West,264,4.9,7.1,38,0.00,,,0.00,VWS V14.01,2013-08-19 17:15:00,
2013-08-19 13:20:00,77.9,49.6,0.00,WSW,258,4.4,7.1,37,0.00,,,0.00,VWS V14.01,2013-08-19 17:20:00,
2013-08-19 13:25:00,78.3,50.6,0.00,WNW,285,5.3,7.1,38,0.00,,,0.00,VWS V14.01,2013-08-19 17:25:00,
2013-08-19 13:30:00,78.6,49.5,0.00,WSW,257,4.4,9.4,36,0.00,,,0.00,VWS V14.01,2013-08-19 17:30:00,
2013-08-19 13:35:00,79.0,49.0,0.00,WNW,285,5.3,9.4,35,0.00,,,0.00,VWS V14.01,2013-08-19 17:35:00,
2013-08-19 13:40:00,78.6,48.7,0.00,West,261,5.3,9.4,35,0.00,,,0.00,VWS V14.01,2013-08-19 17:40:00,
2013-08-19 13:45:00,78.1,48.2,0.00,WSW,239,5.3,9.4,35,0.00,,,0.00,VWS V14.01,2013-08-19 17:45:00,
2013-08-19 13:50:00,77.7,48.7,0.00,WSW,252,5.8,9.4,36,0.00,,,0.00,VWS V14.01,2013-08-19 17:50:00,
2013-08-19 13:55:00,77.2,48.9,0.00,WNW,300,4.9,9.4,37,0.00,,,0.00,VWS V14.01,2013-08-19 17:55:00,
2013-08-19 14:00:00,76.8,49.3,0.00,NW,319,5.8,9.4,38,0.00,,,0.00,VWS V14.01,2013-08-19 18:00:00,
2013-08-19 14:05:00,76.8,50.7,0.00,West,281,6.7,7.1,40,0.00,,,0.00,VWS V14.01,2013-08-19 18:05:00,
2013-08-19 14:10:00,77.2,50.3,0.00,WNW,283,5.8,8.0,39,0.00,,,0.00,VWS V14.01,2013-08-19 18:10:00,
2013-08-19 14:15:00,77.4,50.5,0.00,West,279,5.8,8.0,39,0.00,,,0.00,VWS V14.01,2013-08-19 18:15:00,
2013-08-19 14:20:00,77.5,50.0,0.00,WNW,301,5.8,8.0,38,0.00,,,0.00,VWS V14.01,2013-08-19 18:20:00,
2013-08-19 14:25:00,77.4,49.1,0.00,WNW,288,7.1,8.9,37,0.00,,,0.00,VWS V14.01,2013-08-19 18:25:00,
2013-08-19 14:30:00,77.0,48.0,0.00,WNW,288,8.5,9.4,36,0.00,,,0.00,VWS V14.01,2013-08-19 18:30:00,
2013-08-19 14:35:00,76.6,49.2,0.00,WNW,286,5.3,9.4,38,0.00,,,0.00,VWS V14.01,2013-08-19 18:35:00,
2013-08-19 14:40:00,76.6,48.4,0.00,WNW,290,6.7,9.4,37,0.00,,,0.00,VWS V14.01,2013-08-19 18:40:00,
2013-08-19 14:45:00,76.3,48.1,0.00,NW,313,7.1,10.0,37,0.00,,,0.00,VWS V14.01,2013-08-19 18:45:00,
2013-08-19 14:50:00,75.7,49.0,0.00,NNW,327,7.6,10.5,39,0.00,,,0.00,VWS V14.01,2013-08-19 18:50:00,
2013-08-19 14:55:00,75.7,50.4,0.00,WNW,291,7.1,10.5,41,0.00,,,0.00,VWS V14.01,2013-08-19 18:55:00,
2013-08-19 15:00:00,75.7,50.4,0.00,West,274,5.8,10.5,41,0.00,,,0.00,VWS V14.01,2013-08-19 19:00:00,
2013-08-19 15:05:00,75.7,49.7,0.00,West,277,8.9,8.9,40,0.00,,,0.00,VWS V14.01,2013-08-19 19:05:00,
2013-08-19 15:10:00,75.6,49.6,0.00,WNW,292,9.4,10.0,40,0.00,,,0.00,VWS V14.01,2013-08-19 19:10:00,
2013-08-19 15:15:00,75.2,49.9,0.00,West,272,6.7,11.8,41,0.00,,,0.00,VWS V14.01,2013-08-19 19:15:00,
2013-08-19 15:20:00,75.2,49.9,0.00,WNW,287,8.0,11.8,41,0.00,,,0.00,VWS V14.01,2013-08-19 19:20:00,
2013-08-19 15:25:00,75.0,49.8,0.00,WNW,286,9.8,11.8,41,0.00,,,0.00,VWS V14.01,2013-08-19 19:25:00,
2013-08-19 15:30:00,75.0,50.4,0.00,WNW,282,7.6,11.8,42,0.00,,,0.00,VWS V14.01,2013-08-19 19:30:00,
2013-08-19 15:35:00,75.0,49.8,0.00,WNW,291,10.0,11.8,41,0.00,,,0.00,VWS V14.01,2013-08-19 19:35:00,
2013-08-19 15:40:00,75.0,50.4,0.00,West,277,10.0,11.8,42,0.00,,,0.00,VWS V14.01,2013-08-19 19:40:00,
2013-08-19 15:45:00,75.0,51.0,0.00,West,277,5.8,11.8,43,0.00,,,0.00,VWS V14.01,2013-08-19 19:45:00,
2013-08-19 15:50:00,75.2,50.6,0.00,WNW,286,7.6,11.8,42,0.00,,,0.00,VWS V14.01,2013-08-19 19:50:00,
2013-08-19 15:55:00,75.0,51.0,0.00,WNW,299,7.1,11.8,43,0.00,,,0.00,VWS V14.01,2013-08-19 19:55:00,
2013-08-19 16:00:00,74.8,50.9,0.00,WNW,293,7.6,11.8,43,0.00,,,0.00,VWS V14.01,2013-08-19 20:00:00,
2013-08-19 16:05:00,74.7,50.7,0.00,WNW,288,9.8,10.5,43,0.00,,,0.00,VWS V14.01,2013-08-19 20:05:00,
2013-08-19 16:10:00,74.7,51.3,0.00,WNW,283,7.1,10.5,44,0.00,,,0.00,VWS V14.01,2013-08-19 20:10:00,
2013-08-19 16:15:00,74.7,51.3,0.00,WNW,292,7.1,10.5,44,0.00,,,0.00,VWS V14.01,2013-08-19 20:15:00,
2013-08-19 16:20:00,74.7,51.3,0.00,WNW,285,9.4,10.5,44,0.00,,,0.00,VWS V14.01,2013-08-19 20:20:00,
2013-08-19 16:25:00,74.7,51.3,0.00,WNW,293,7.1,10.5,44,0.00,,,0.00,VWS V14.01,2013-08-19 20:25:00,
2013-08-19 16:30:00,74.7,51.3,0.00,West,273,5.3,10.9,44,0.00,,,0.00,VWS V14.01,2013-08-19 20:30:00,
2013-08-19 16:35:00,74.7,51.9,0.00,WNW,293,8.0,10.9,45,0.00,,,0.00,VWS V14.01,2013-08-19 20:35:00,
2013-08-19 16:40:00,74.5,51.8,0.00,WNW,293,7.6,10.9,45,0.00,,,0.00,VWS V14.01,2013-08-19 20:40:00,
2013-08-19 16:45:00,74.5,52.4,0.00,WNW,290,5.3,10.9,46,0.00,,,0.00,VWS V14.01,2013-08-19 20:45:00,
2013-08-19 16:50:00,74.3,52.2,0.00,West,269,7.1,10.9,46,0.00,,,0.00,VWS V14.01,2013-08-19 20:50:00,
2013-08-19 16:55:00,74.3,52.2,0.00,WNW,289,7.6,10.9,46,0.00,,,0.00,VWS V14.01,2013-08-19 20:55:00,
2013-08-19 17:00:00,74.3,52.2,0.00,WNW,297,7.1,10.9,46,0.00,,,0.00,VWS V14.01,2013-08-19 21:00:00,
2013-08-19 17:05:00,74.5,51.8,0.00,WNW,298,6.7,8.0,45,0.00,,,0.00,VWS V14.01,2013-08-19 21:05:00,
2013-08-19 17:10:00,74.5,51.8,0.00,WNW,299,5.8,8.0,45,0.00,,,0.00,VWS V14.01,2013-08-19 21:10:00,
2013-08-19 17:15:00,74.5,51.2,0.00,WNW,292,7.6,8.0,44,0.00,,,0.00,VWS V14.01,2013-08-19 21:15:00,
2013-08-19 17:20:00,74.5,50.5,0.00,NW,309,7.6,8.0,43,0.00,,,0.00,VWS V14.01,2013-08-19 21:20:00,
2013-08-19 17:25:00,74.5,51.2,0.00,WNW,287,6.2,8.0,44,0.00,,,0.00,VWS V14.01,2013-08-19 21:25:00,
2013-08-19 17:30:00,74.5,51.8,0.00,WNW,284,4.9,8.0,45,0.00,,,0.00,VWS V14.01,2013-08-19 21:30:00,
2013-08-19 17:35:00,74.7,51.3,0.00,WNW,285,5.8,8.0,44,0.00,,,0.00,VWS V14.01,2013-08-19 21:35:00,
2013-08-19 17:40:00,74.8,51.5,0.00,WNW,287,4.9,8.0,44,0.00,,,0.00,VWS V14.01,2013-08-19 21:40:00,
2013-08-19 17:45:00,74.8,50.9,0.00,NW,312,4.9,8.0,43,0.00,,,0.00,VWS V14.01,2013-08-19 21:45:00,
2013-08-19 17:50:00,74.8,49.6,0.00,WNW,292,4.9,8.0,41,0.00,,,0.00,VWS V14.01,2013-08-19 21:50:00,
2013-08-19 17:55:00,74.8,48.9,0.00,WNW,285,5.3,8.0,40,0.00,,,0.00,VWS V14.01,2013-08-19 21:55:00,
2013-08-19 18:00:00,75.0,49.8,0.00,WNW,288,6.2,8.0,41,0.00,,,0.00,VWS V14.01,2013-08-19 22:00:00,
2013-08-19 18:05:00,74.8,48.9,0.00,WNW,290,8.0,8.0,40,0.00,,,0.00,VWS V14.01,2013-08-19 22:05:00,
2013-08-19 18:10:00,74.5,50.5,0.00,WNW,295,6.7,8.0,43,0.00,,,0.00,VWS V14.01,2013-08-19 22:10:00,
2013-08-19 18:15:00,73.9,51.9,0.00,West,271,6.7,8.0,46,0.00,,,0.00,VWS V14.01,2013-08-19 22:15:00,
2013-08-19 18:20:00,73.4,52.5,0.00,WNW,300,8.0,8.0,48,0.00,,,0.00,VWS V14.01,2013-08-19 22:20:00,
2013-08-19 18:25:00,73.2,53.5,0.00,WNW,286,7.6,8.0,50,0.00,,,0.00,VWS V14.01,2013-08-19 22:25:00,
2013-08-19 18:30:00,73.0,54.4,0.00,WNW,282,9.4,9.4,52,0.00,,,0.00,VWS V14.01,2013-08-19 22:30:00,
2013-08-19 18:35:00,72.7,54.6,0.00,WNW,289,7.1,9.4,53,0.00,,,0.00,VWS V14.01,2013-08-19 22:35:00,
2013-08-19 18:40:00,72.7,55.6,0.00,WNW,289,8.5,9.4,55,0.00,,,0.00,VWS V14.01,2013-08-19 22:40:00,
2013-08-19 18:45:00,72.5,55.9,0.00,WNW,289,8.0,9.8,56,0.00,,,0.00,VWS V14.01,2013-08-19 22:45:00,
2013-08-19 18:50:00,72.5,55.9,0.00,WNW,296,8.5,9.8,56,0.00,,,0.00,VWS V14.01,2013-08-19 22:50:00,
2013-08-19 18:55:00,72.3,55.8,0.00,WNW,285,7.6,9.8,56,0.00,,,0.00,VWS V14.01,2013-08-19 22:55:00,
2013-08-19 19:00:00,72.3,56.2,0.00,WNW,288,7.6,9.8,57,0.00,,,0.00,VWS V14.01,2013-08-19 23:00:00,
2013-08-19 19:05:00,72.1,56.6,0.00,WNW,288,8.5,8.5,58,0.00,,,0.00,VWS V14.01,2013-08-19 23:05:00,
2013-08-19 19:10:00,72.1,57.0,0.00,West,280,8.0,8.5,59,0.00,,,0.00,VWS V14.01,2013-08-19 23:10:00,
2013-08-19 19:15:00,72.1,57.5,0.00,WNW,300,7.1,8.5,60,0.00,,,0.00,VWS V14.01,2013-08-19 23:15:00,
2013-08-19 19:20:00,72.1,57.5,0.00,WNW,294,8.0,8.5,60,0.00,,,0.00,VWS V14.01,2013-08-19 23:20:00,
2013-08-19 19:25:00,72.1,57.5,0.00,WNW,294,7.6,8.5,60,0.00,,,0.00,VWS V14.01,2013-08-19 23:25:00,
2013-08-19 19:30:00,72.1,58.0,0.00,WNW,299,7.1,8.5,61,0.00,,,0.00,VWS V14.01,2013-08-19 23:30:00,
2013-08-19 19:35:00,72.1,58.0,0.00,West,279,6.7,8.5,61,0.00,,,0.00,VWS V14.01,2013-08-19 23:35:00,
2013-08-19 19:40:00,72.1,58.0,0.00,WNW,298,6.7,8.5,61,0.00,,,0.00,VWS V14.01,2013-08-19 23:40:00,
2013-08-19 19:45:00,72.1,58.0,0.00,WNW,298,7.6,8.5,61,0.00,,,0.00,VWS V14.01,2013-08-19 23:45:00,
2013-08-19 19:50:00,72.1,58.0,0.00,NW,314,8.0,8.5,61,0.00,,,0.00,VWS V14.01,2013-08-19 23:50:00,
2013-08-19 19:55:00,72.1,56.6,0.00,WNW,294,7.1,8.5,58,0.00,,,0.00,VWS V14.01,2013-08-19 23:55:00,
2013-08-19 20:00:00,72.1,56.1,0.00,WNW,293,6.7,8.5,57,0.00,,,0.00,VWS V14.01,2013-08-20 00:00:00,
2013-08-19 20:05:00,72.1,55.6,0.00,WNW,302,7.6,8.0,56,0.00,,,0.00,VWS V14.01,2013-08-20 00:05:00,
2013-08-19 20:10:00,72.3,54.8,0.00,WNW,283,7.6,8.0,54,0.00,,,0.00,VWS V14.01,2013-08-20 00:10:00,
2013-08-19 20:15:00,72.3,54.8,0.00,WNW,292,5.3,8.0,54,0.00,,,0.00,VWS V14.01,2013-08-20 00:15:00,
2013-08-19 20:20:00,72.1,55.1,0.00,WNW,294,6.7,8.0,55,0.00,,,0.00,VWS V14.01,2013-08-20 00:20:00,
2013-08-19 20:25:00,72.0,56.4,0.00,WNW,287,7.1,8.0,58,0.00,,,0.00,VWS V14.01,2013-08-20 00:25:00,
2013-08-19 20:30:00,71.8,56.7,0.00,WNW,288,7.1,8.0,59,0.00,,,0.00,VWS V14.01,2013-08-20 00:30:00,
2013-08-19 20:35:00,71.8,57.2,0.00,WNW,289,7.1,8.0,60,0.00,,,0.00,VWS V14.01,2013-08-20 00:35:00,
2013-08-19 20:40:00,71.8,57.2,0.00,WNW,295,5.3,8.0,60,0.00,,,0.00,VWS V14.01,2013-08-20 00:40:00,
2013-08-19 20:45:00,71.8,57.6,0.00,WNW,283,6.2,8.0,61,0.00,,,0.00,VWS V14.01,2013-08-20 00:45:00,
2013-08-19 20:50:00,71.6,57.9,0.00,WNW,284,4.9,8.0,62,0.00,,,0.00,VWS V14.01,2013-08-20 00:50:00,
2013-08-19 20:55:00,71.6,57.9,0.00,WNW,297,5.8,8.0,62,0.00,,,0.00,VWS V14.01,2013-08-20 00:55:00,
2013-08-19 21:00:00,71.8,57.6,0.00,West,279,4.4,8.0,61,0.00,,,0.00,VWS V14.01,2013-08-20 01:00:00,
2013-08-19 21:05:00,71.8,56.7,0.00,WNW,290,5.8,5.8,59,0.00,,,0.00,VWS V14.01,2013-08-20 01:05:00,
2013-08-19 21:10:00,72.0,55.9,0.00,WNW,282,4.4,7.1,57,0.00,,,0.00,VWS V14.01,2013-08-20 01:10:00,
2013-08-19 21:15:00,72.0,54.9,0.00,WNW,293,5.8,7.1,55,0.00,,,0.00,VWS V14.01,2013-08-20 01:15:00,
2013-08-19 21:20:00,72.1,54.1,0.00,WNW,287,5.8,7.1,53,0.00,,,0.00,VWS V14.01,2013-08-20 01:20:00,
2013-08-19 21:25:00,72.1,52.5,0.00,WNW,297,5.3,7.1,50,0.00,,,0.00,VWS V14.01,2013-08-20 01:25:00,
2013-08-19 21:30:00,72.1,52.5,0.00,WNW,301,5.8,7.6,50,0.00,,,0.00,VWS V14.01,2013-08-20 01:30:00,
2013-08-19 21:35:00,72.1,52.5,0.00,WNW,290,5.8,7.6,50,0.00,,,0.00,VWS V14.01,2013-08-20 01:35:00,
2013-08-19 21:40:00,72.1,52.5,0.00,NW,321,5.8,7.6,50,0.00,,,0.00,VWS V14.01,2013-08-20 01:40:00,
2013-08-19 21:45:00,72.1,52.5,0.00,WNW,291,5.3,7.6,50,0.00,,,0.00,VWS V14.01,2013-08-20 01:45:00,
2013-08-19 21:50:00,72.1,52.5,0.00,WNW,286,4.4,7.6,50,0.00,,,0.00,VWS V14.01,2013-08-20 01:50:00,
2013-08-19 21:55:00,72.0,52.3,0.00,West,277,4.9,7.6,50,0.00,,,0.00,VWS V14.01,2013-08-20 01:55:00,
2013-08-19 22:00:00,72.0,52.3,0.00,West,264,4.9,7.6,50,0.00,,,0.00,VWS V14.01,2013-08-20 02:00:00,
2013-08-19 22:05:00,72.0,52.3,0.00,West,279,5.3,6.2,50,0.00,,,0.00,VWS V14.01,2013-08-20 02:05:00,
2013-08-19 22:10:00,72.0,52.3,0.00,WNW,294,5.8,6.2,50,0.00,,,0.00,VWS V14.01,2013-08-20 02:10:00,
2013-08-19 22:15:00,71.8,52.2,0.00,WNW,291,5.8,6.2,50,0.00,,,0.00,VWS V14.01,2013-08-20 02:15:00,
2013-08-19 22:20:00,71.8,52.2,0.00,WNW,292,5.3,6.2,50,0.00,,,0.00,VWS V14.01,2013-08-20 02:20:00,
2013-08-19 22:24:00,71.8,52.7,0.00,WNW,282,5.8,6.2,51,0.00,,,0.00,VWS V14.01,2013-08-20 02:24:00,
2013-08-19 22:29:00,71.8,52.7,0.00,WNW,284,4.0,6.2,51,0.00,,,0.00,VWS V14.01,2013-08-20 02:29:00,
2013-08-19 22:34:00,71.8,52.7,0.00,WNW,291,4.0,6.2,51,0.00,,,0.00,VWS V14.01,2013-08-20 02:34:00,
2013-08-19 22:39:00,71.8,52.7,0.00,West,277,4.4,6.2,51,0.00,,,0.00,VWS V14.01,2013-08-20 02:39:00,
2013-08-19 22:44:00,71.8,52.7,0.00,West,275,5.8,6.2,51,0.00,,,0.00,VWS V14.01,2013-08-20 02:44:00,
2013-08-19 22:49:00,71.8,52.2,0.00,WNW,297,4.4,6.2,50,0.00,,,0.00,VWS V14.01,2013-08-20 02:49:00,
2013-08-19 22:54:00,71.8,52.2,0.00,WNW,287,5.3,6.2,50,0.00,,,0.00,VWS V14.01,2013-08-20 02:54:00,
2013-08-19 22:59:00,71.6,52.0,0.00,WNW,302,5.3,6.2,50,0.00,,,0.00,VWS V14.01,2013-08-20 02:59:00,
2013-08-19 23:00:00,72.0,52.3,0.00,West,264,4.9,7.6,50,0.00,,,0.00,VWS V15.00,2013-08-20 03:00:00,
2013-08-19 23:04:00,71.8,52.2,0.00,WNW,298,5.3,6.7,50,0.00,,,0.00,VWS V14.01,2013-08-20 03:04:00,
2013-08-19 23:09:00,71.8,52.2,0.00,WNW,291,5.8,6.7,50,0.00,,,0.00,VWS V14.01,2013-08-20 03:09:00,
2013-08-19 23:14:00,71.8,52.7,0.00,WNW,288,5.3,6.7,51,0.00,,,0.00,VWS V14.01,2013-08-20 03:14:00,
2013-08-19 23:19:00,71.8,52.7,0.00,WNW,289,4.4,6.7,51,0.00,,,0.00,VWS V14.01,2013-08-20 03:19:00,
2013-08-19 23:24:00,71.6,52.5,0.00,WNW,294,5.3,6.7,51,0.00,,,0.00,VWS V14.01,2013-08-20 03:24:00,
2013-08-19 23:29:00,71.6,52.5,0.00,WNW,298,4.9,6.7,51,0.00,,,0.00,VWS V14.01,2013-08-20 03:29:00,
2013-08-19 23:34:00,71.6,52.5,0.00,WSW,238,4.4,6.7,51,0.00,,,0.00,VWS V14.01,2013-08-20 03:34:00,
2013-08-19 23:39:00,71.6,52.5,0.00,WNW,290,4.4,6.7,51,0.00,,,0.00,VWS V14.01,2013-08-20 03:39:00,
2013-08-19 23:44:00,71.6,52.5,0.00,WNW,289,4.4,6.7,51,0.00,,,0.00,VWS V14.01,2013-08-20 03:44:00,
2013-08-19 23:49:00,71.4,52.4,0.00,WNW,289,4.0,6.7,51,0.00,,,0.00,VWS V14.01,2013-08-20 03:49:00,
2013-08-19 23:54:00,71.4,52.4,0.00,WNW,289,4.0,6.7,51,0.00,,,0.00,VWS V14.01,2013-08-20 03:54:00,
2013-08-19 23:59:00,71.4,52.4,0.00,WNW,289,1.8,6.7,51,0.00,,,0.00,VWS V14.01,2013-08-20 03:59:00,